Time;durP1;ratioP1;P1;durP2;ratioP2;P2;SDS_P1;SDS_P2;PMS_P1;PMS_P2;Temp;Humidity;BMP_temperature;BMP_pressure;BME280_temperature;BME280_humidity;BME280_pressure;Samples;Min_cycle;Max_cycle;Signal;HPM_P1;HPM_P2
2021/08/03 00:01:38;;;;;;;12.27;3.60;;;;;;;29.86;61.19;100692.22;5101166;27;65610;-36
2021/08/03 00:04:17;;;;;;;12.05;2.72;;;;;;;30.13;62.30;100734.28;5111788;27;70028;-37
2021/08/03 00:06:56;;;;;;;11.57;3.17;;;;;;;29.90;62.75;100698.88;5111095;27;66465;-36
2021/08/03 00:09:32;;;;;;;5.20;3.38;;;;;;;30.19;62.33;100729.88;5112149;27;69989;-35
2021/08/03 00:12:03;;;;;;;11.90;4.47;;;;;;;30.17;63.41;100730.09;5106022;27;66509;-36
2021/08/03 00:14:34;;;;;;;14.73;6.75;;;;;;;30.23;62.63;100729.25;5111260;27;68925;-36
2021/08/03 00:17:05;;;;;;;16.63;8.03;;;;;;;30.23;63.68;100734.66;5107608;27;66207;-36
2021/08/03 00:19:35;;;;;;;11.73;7.28;;;;;;;30.25;63.90;100732.53;5115186;27;70357;-35
2021/08/03 00:22:07;;;;;;;12.60;6.35;;;;;;;30.27;63.69;100735.88;5103326;27;66439;-35
2021/08/03 00:24:37;;;;;;;12.02;6.22;;;;;;;30.29;64.69;100727.53;5106231;27;71010;-37
2021/08/03 00:27:08;;;;;;;18.42;5.45;;;;;;;30.31;64.57;100730.84;5101387;27;67185;-36
2021/08/03 00:29:39;;;;;;;11.18;5.07;;;;;;;30.33;63.97;100730.63;5106288;27;69954;-36
2021/08/03 00:32:09;;;;;;;17.73;4.75;;;;;;;30.26;64.32;100726.09;5108066;27;65580;-37
2021/08/03 00:34:40;;;;;;;15.20;4.53;;;;;;;30.34;64.79;100726.88;5104064;27;69530;-35
2021/08/03 00:37:10;;;;;;;10.15;4.15;;;;;;;30.39;64.88;100724.34;5114804;27;66556;-37
2021/08/03 00:39:44;;;;;;;10.10;4.47;;;;;;;30.43;64.17;100739.91;5105510;27;70016;-37
2021/08/03 00:42:18;;;;;;;8.38;4.13;;;;;;;30.45;65.05;100736.97;5110778;27;66244;-38
2021/08/03 00:44:51;;;;;;;6.97;4.03;;;;;;;30.02;65.49;100661.94;5086498;27;70658;-36
2021/08/03 00:47:34;;;;;;;8.80;4.32;;;;;;;30.43;65.43;100736.38;5108361;27;66337;-40
2021/08/03 00:50:10;;;;;;;10.30;3.90;;;;;;;30.49;65.34;100735.50;5113717;27;69886;-36
2021/08/03 00:52:42;;;;;;;11.75;3.97;;;;;;;30.53;65.87;100738.59;5109637;27;66169;-36
2021/08/03 00:55:14;;;;;;;12.77;3.90;;;;;;;30.55;65.67;100734.59;5113269;27;69672;-37
2021/08/03 00:57:53;;;;;;;11.38;4.55;;;;;;;30.50;65.42;100716.31;5113679;27;66374;-37
2021/08/03 01:00:25;;;;;;;14.43;5.15;;;;;;;30.60;65.39;100740.19;5110457;27;71541;-35
2021/08/03 01:02:58;;;;;;;11.75;4.78;;;;;;;30.64;65.25;100735.97;5128296;27;67459;-37
2021/08/03 01:05:39;;;;;;;8.63;4.18;;;;;;;30.65;65.79;100737.66;5111841;27;69753;-35
2021/08/03 01:08:25;;;;;;;8.45;4.22;;;;;;;30.68;65.55;100747.22;5085520;27;66427;-36
2021/08/03 01:11:05;;;;;;;12.80;4.60;;;;;;;30.50;65.44;100724.44;5114734;27;69237;-35
2021/08/03 01:13:40;;;;;;;15.85;4.88;;;;;;;30.69;65.69;100760.50;5104655;27;66162;-36
2021/08/03 01:16:23;;;;;;;9.38;4.45;;;;;;;30.73;65.44;100753.63;5113178;27;70243;-36
2021/08/03 01:19:43;;;;;;;12.98;4.93;;;;;;;30.70;65.92;100761.34;5106307;27;65921;-37
2021/08/03 01:22:50;;;;;;;10.80;4.65;;;;;;;30.75;66.15;100774.22;5089205;27;70375;-36
2021/08/03 01:25:37;;;;;;;7.00;3.17;;;;;;;30.81;65.77;100784.19;5097270;27;66060;-36
2021/08/03 01:28:12;;;;;;;9.02;3.85;;;;;;;30.88;65.32;100784.97;5100479;27;69511;-37
2021/08/03 01:31:17;;;;;;;8.10;4.30;;;;;;;30.78;65.93;100780.00;5091799;27;66677;-37
2021/08/03 01:33:58;;;;;;;12.23;3.75;;;;;;;30.72;65.48;100745.69;5100218;27;70080;-35
2021/08/03 01:36:31;;;;;;;16.65;4.40;;;;;;;30.93;65.24;100802.19;5104609;27;66055;-36
2021/08/03 01:39:04;;;;;;;7.72;3.80;;;;;;;30.97;65.35;100789.03;5088595;27;69221;-39
2021/08/03 01:41:37;;;;;;;23.30;4.43;;;;;;;31.01;65.07;100790.25;5088554;27;65699;-38
2021/08/03 01:44:12;;;;;;;9.55;3.47;;;;;;;31.08;65.08;100801.03;5099923;27;69081;-37
2021/08/03 01:46:45;;;;;;;10.73;3.90;;;;;;;31.09;64.34;100789.97;5102827;27;66243;-36
2021/08/03 01:49:20;;;;;;;12.43;3.15;;;;;;;30.99;64.46;100759.84;5108979;27;69976;-38
2021/08/03 01:51:57;;;;;;;8.48;3.65;;;;;;;31.23;63.66;100797.94;5110627;27;65656;-36
2021/08/03 01:54:29;;;;;;;7.35;3.50;;;;;;;31.06;64.05;100755.19;5110149;27;69844;-36
2021/08/03 01:57:02;;;;;;;5.63;3.45;;;;;;;31.27;63.36;100799.16;5117025;27;65935;-37
2021/08/03 01:59:35;;;;;;;6.63;3.33;;;;;;;31.31;63.36;100814.72;5112047;27;70309;-36
2021/08/03 02:02:07;;;;;;;5.47;3.15;;;;;;;31.27;63.28;100807.28;5103618;27;65373;-37
2021/08/03 02:04:41;;;;;;;7.07;3.53;;;;;;;31.30;63.67;100815.78;5110419;27;69963;-40
2021/08/03 02:07:15;;;;;;;7.45;3.25;;;;;;;31.32;63.54;100823.72;5113971;27;66020;-37
2021/08/03 02:09:52;;;;;;;13.05;3.33;;;;;;;31.34;62.77;100827.00;5101765;27;69519;-42
2021/08/03 02:12:24;;;;;;;13.80;3.35;;;;;;;31.34;62.98;100816.16;5092507;27;66383;-37
2021/08/03 02:14:55;;;;;;;9.57;3.10;;;;;;;31.36;63.17;100819.53;5112728;27;70599;-38
2021/08/03 02:17:29;;;;;;;10.40;3.10;;;;;;;31.35;62.79;100801.56;5106448;27;66893;-37
2021/08/03 02:20:15;;;;;;;8.05;3.20;;;;;;;31.42;62.82;100823.22;5114264;27;70640;-42
2021/08/03 02:22:50;;;;;;;8.20;3.35;;;;;;;31.45;62.64;100814.63;5113828;27;65823;-37
2021/08/03 02:25:27;;;;;;;10.05;3.55;;;;;;;31.47;62.25;100816.06;5113260;27;69961;-38
2021/08/03 02:27:57;;;;;;;8.93;3.97;;;;;;;31.49;62.26;100811.25;5114817;27;65213;-39
2021/08/03 02:30:31;;;;;;;8.77;2.55;;;;;;;31.51;62.30;100817.28;5105709;27;69943;-39
2021/08/03 02:33:13;;;;;;;12.80;3.05;;;;;;;31.53;62.38;100820.56;5106658;27;65119;-38
2021/08/03 02:36:08;;;;;;;10.38;3.13;;;;;;;31.50;62.54;100820.19;5105703;27;70120;-41
2021/08/03 02:38:44;;;;;;;9.93;3.63;;;;;;;31.55;62.46;100802.19;5084515;27;66325;-38
2021/08/03 02:41:22;;;;;;;7.60;3.47;;;;;;;31.59;62.46;100808.84;5092434;27;70244;-41
2021/08/03 02:43:55;;;;;;;5.97;2.90;;;;;;;31.47;62.15;100788.94;5085986;27;65833;-37
2021/08/03 02:46:29;;;;;;;6.13;2.95;;;;;;;31.67;62.01;100804.97;5095230;27;70676;-40
2021/08/03 02:49:04;;;;;;;17.85;2.90;;;;;;;31.69;62.31;100818.31;5112688;27;65692;-38
2021/08/03 02:51:37;;;;;;;8.98;3.38;;;;;;;31.75;62.07;100817.41;5111380;27;69412;-40
2021/08/03 02:54:27;;;;;;;9.75;2.70;;;;;;;31.70;62.40;100800.97;5107674;27;66266;-40
2021/08/03 02:57:04;;;;;;;5.82;2.53;;;;;;;31.77;62.11;100794.41;5113680;27;69297;-43
2021/08/03 02:59:40;;;;;;;4.88;2.75;;;;;;;31.85;61.71;100797.88;5125858;27;66987;-37
2021/08/03 03:02:14;;;;;;;7.18;2.88;;;;;;;31.88;61.95;100809.09;5108238;27;69344;-36
2021/08/03 03:04:55;;;;;;;10.02;2.53;;;;;;;31.91;62.17;100805.97;5107650;27;66162;-37
2021/08/03 03:07:48;;;;;;;6.47;3.13;;;;;;;31.88;61.91;100803.69;5110705;27;69571;-38
2021/08/03 03:10:25;;;;;;;9.95;3.50;;;;;;;31.92;61.76;100785.91;5100366;27;64718;-36
2021/08/03 03:13:01;;;;;;;12.18;3.08;;;;;;;31.81;61.43;100775.78;5105364;27;70463;-38
2021/08/03 03:15:32;;;;;;;9.88;3.80;;;;;;;31.95;61.26;100793.56;5087265;27;66616;-40
2021/08/03 03:18:04;;;;;;;6.90;3.08;;;;;;;31.91;60.92;100795.09;5105308;27;69932;-40
2021/08/03 03:20:39;;;;;;;4.38;2.65;;;;;;;31.96;60.66;100808.00;5096933;27;65874;-42
2021/08/03 03:23:12;;;;;;;10.13;2.85;;;;;;;31.97;60.81;100777.06;5104198;27;69984;-37
2021/08/03 03:25:45;;;;;;;5.95;2.55;;;;;;;31.96;60.75;100781.69;5113902;27;65472;-42
2021/08/03 03:28:23;;;;;;;13.70;3.42;;;;;;;32.01;60.32;100772.84;5092302;27;69832;-41
2021/08/03 03:30:55;;;;;;;6.82;2.67;;;;;;;32.01;60.33;100770.97;5109520;27;66669;-39
2021/08/03 03:33:29;;;;;;;7.55;3.00;;;;;;;32.03;60.37;100771.53;5106703;27;69560;-43
2021/08/03 03:36:03;;;;;;;8.90;2.85;;;;;;;32.08;60.46;100770.03;5110844;27;66303;-41
2021/08/03 03:38:38;;;;;;;11.43;3.08;;;;;;;32.13;60.27;100770.19;5117576;27;69939;-39
2021/08/03 03:41:09;;;;;;;11.30;2.78;;;;;;;32.15;60.36;100770.75;5104789;27;65285;-37
2021/08/03 03:43:40;;;;;;;7.25;3.33;;;;;;;32.13;60.99;100770.19;5111696;27;68752;-38
2021/08/03 03:46:16;;;;;;;8.13;3.45;;;;;;;32.14;60.57;100769.13;5114958;27;64999;-39
2021/08/03 03:48:55;;;;;;;7.13;2.90;;;;;;;31.97;60.55;100739.91;5108719;27;70648;-40
2021/08/03 03:51:31;;;;;;;7.15;2.88;;;;;;;32.23;60.56;100775.84;5113842;27;67169;-41
2021/08/03 03:54:05;;;;;;;10.35;2.92;;;;;;;32.23;60.52;100767.72;5109805;27;69521;-39
2021/08/03 03:57:02;;;;;;;8.98;3.50;;;;;;;32.19;60.42;100780.94;5115416;27;66612;-38
2021/08/03 03:59:37;;;;;;;10.23;2.58;;;;;;;32.27;60.40;100777.06;5110357;27;69684;-39
2021/08/03 04:02:10;;;;;;;8.43;2.78;;;;;;;32.30;59.93;100778.47;5111422;27;66293;-36
2021/08/03 04:04:43;;;;;;;10.50;2.95;;;;;;;32.25;59.70;100762.88;5110872;27;69797;-38
2021/08/03 04:07:13;;;;;;;7.75;3.17;;;;;;;32.25;59.17;100768.31;5089386;27;64557;-38
2021/08/03 04:09:45;;;;;;;4.75;2.42;;;;;;;32.31;59.17;100761.94;5114434;27;69906;-39
2021/08/03 04:12:20;;;;;;;3.90;2.42;;;;;;;32.33;59.52;100759.84;5102786;27;66126;-38
2021/08/03 04:14:51;;;;;;;3.70;2.58;;;;;;;32.27;59.36;100760.78;5103350;27;70241;-37
2021/08/03 04:17:23;;;;;;;9.32;3.10;;;;;;;32.32;59.38;100763.63;5067230;27;65519;-41
2021/08/03 04:19:54;;;;;;;6.40;3.05;;;;;;;32.31;59.51;100761.13;5107509;27;70059;-37
2021/08/03 04:22:26;;;;;;;5.70;2.80;;;;;;;32.31;59.70;100753.81;5110830;27;65195;-41
2021/08/03 04:24:56;;;;;;;7.18;3.05;;;;;;;32.30;59.82;100743.19;5122613;27;69451;-39
2021/08/03 04:27:27;;;;;;;5.90;2.55;;;;;;;32.30;59.94;100744.03;5124416;27;66738;-37
2021/08/03 04:29:57;;;;;;;12.00;3.15;;;;;;;32.33;59.40;100737.31;5102396;27;70657;-39
2021/08/03 04:32:28;;;;;;;12.07;3.28;;;;;;;32.32;59.83;100741.06;5108427;27;66138;-38
2021/08/03 04:34:59;;;;;;;6.68;2.95;;;;;;;32.37;59.91;100731.16;5088322;27;69959;-37
2021/08/03 04:37:39;;;;;;;6.70;3.20;;;;;;;32.32;60.09;100717.47;5093489;27;65191;-39
2021/08/03 04:40:11;;;;;;;10.88;3.35;;;;;;;32.35;60.00;100714.28;5104023;27;70725;-40
2021/08/03 04:42:42;;;;;;;12.13;3.25;;;;;;;32.44;60.27;100715.59;5076808;27;66184;-40
2021/08/03 04:45:14;;;;;;;3.85;2.72;;;;;;;32.50;60.23;100716.56;5106097;27;70286;-41
2021/08/03 04:47:48;;;;;;;8.07;2.90;;;;;;;32.14;60.35;100652.44;5111070;27;65580;-40
2021/08/03 04:50:25;;;;;;;12.27;3.05;;;;;;;32.58;59.84;100718.13;5105474;27;69274;-42
2021/08/03 04:52:58;;;;;;;12.70;3.17;;;;;;;32.56;59.68;100699.31;5071832;27;66966;-39
2021/08/03 04:55:29;;;;;;;5.38;2.88;;;;;;;32.44;58.44;100702.00;5112123;27;69709;-37
2021/08/03 04:58:03;;;;;;;12.68;3.22;;;;;;;32.33;57.31;100689.25;5092448;27;66200;-37
2021/08/03 05:00:34;;;;;;;19.25;2.50;;;;;;;32.19;56.13;100687.84;5091269;27;69045;-36
2021/08/03 05:03:05;;;;;;;17.95;2.72;;;;;;;31.93;55.37;100656.50;5110670;27;65251;-40
2021/08/03 05:05:36;;;;;;;25.07;3.60;;;;;;;31.95;55.17;100686.94;5073077;27;70292;-35
2021/08/03 05:08:06;;;;;;;6.70;2.47;;;;;;;31.82;54.63;100672.50;5111995;27;66235;-40
2021/08/03 05:10:39;;;;;;;14.07;2.72;;;;;;;31.72;53.14;100671.41;5111104;27;71006;-40
2021/08/03 05:13:10;;;;;;;19.15;2.55;;;;;;;31.61;53.29;100657.56;5105285;27;66213;-36
2021/08/03 05:15:40;;;;;;;8.63;2.25;;;;;;;31.52;52.07;100650.84;5104682;27;69482;-35
2021/08/03 05:18:10;;;;;;;11.07;2.78;;;;;;;31.45;50.89;100647.38;5107028;27;65963;-34
2021/08/03 05:20:41;;;;;;;5.97;2.35;;;;;;;31.41;51.32;100648.91;5111129;27;69296;-39
2021/08/03 05:23:12;;;;;;;6.25;2.45;;;;;;;31.34;50.12;100650.84;5101910;27;66885;-36
2021/08/03 05:25:42;;;;;;;5.13;2.08;;;;;;;31.28;49.78;100640.91;5104404;27;70311;-36
2021/08/03 05:28:13;;;;;;;7.07;2.17;;;;;;;31.23;49.64;100629.94;5105079;27;66113;-37
2021/08/03 05:30:46;;;;;;;2.42;1.92;;;;;;;30.99;49.24;100600.03;5106414;27;69362;-38
2021/08/03 05:33:16;;;;;;;4.05;2.08;;;;;;;31.16;49.70;100619.19;5111693;27;66621;-36
2021/08/03 05:35:47;;;;;;;3.97;2.13;;;;;;;31.10;48.29;100618.22;5097498;27;70624;-36
2021/08/03 05:38:17;;;;;;;3.10;1.92;;;;;;;31.07;47.95;100610.56;5105500;27;66349;-35
2021/08/03 05:40:47;;;;;;;4.35;2.10;;;;;;;31.06;47.96;100608.88;5116719;27;70159;-36
2021/08/03 05:43:19;;;;;;;3.30;2.20;;;;;;;31.01;47.73;100616.91;5109708;27;65875;-36
2021/08/03 05:45:49;;;;;;;3.65;2.08;;;;;;;30.97;46.60;100604.03;5112152;27;70003;-37
2021/08/03 05:48:20;;;;;;;2.38;1.83;;;;;;;30.92;46.71;100588.44;5116341;27;65648;-36
2021/08/03 05:50:51;;;;;;;2.15;1.73;;;;;;;30.88;47.46;100581.84;5105994;27;69055;-37
2021/08/03 05:53:22;;;;;;;6.70;1.92;;;;;;;30.92;47.41;100583.88;5107197;27;66395;-37
2021/08/03 05:55:52;;;;;;;2.03;1.77;;;;;;;31.00;46.67;100595.44;5113102;27;69705;-35
2021/08/03 05:58:23;;;;;;;2.72;2.10;;;;;;;30.98;46.49;100598.38;5114019;27;65394;-35
2021/08/03 06:00:53;;;;;;;2.67;2.22;;;;;;;31.00;46.35;100582.72;5109726;27;71129;-35
2021/08/03 06:03:25;;;;;;;4.07;2.33;;;;;;;30.99;46.29;100586.50;5114288;27;66104;-42
2021/08/03 06:06:00;;;;;;;4.30;2.38;;;;;;;30.97;45.66;100571.50;5107039;27;69566;-37
2021/08/03 06:08:31;;;;;;;3.80;2.38;;;;;;;30.74;46.32;100540.53;5108351;27;66492;-37
2021/08/03 06:11:03;;;;;;;3.00;2.38;;;;;;;30.93;45.98;100561.13;5100007;27;70101;-37
2021/08/03 06:13:35;;;;;;;3.38;2.72;;;;;;;30.95;46.07;100558.19;5108875;27;66204;-37
2021/08/03 06:16:07;;;;;;;3.10;2.38;;;;;;;30.89;46.47;100540.16;5101349;27;69156;-39
2021/08/03 06:18:49;;;;;;;2.83;2.60;;;;;;;31.01;45.75;100546.47;5090545;27;65127;-39
2021/08/03 06:21:21;;;;;;;4.57;2.90;;;;;;;30.98;44.76;100546.91;5115326;27;70399;-36
2021/08/03 06:23:51;;;;;;;3.03;2.72;;;;;;;30.98;44.53;100549.63;5104724;27;66758;-38
2021/08/03 06:26:22;;;;;;;3.22;2.63;;;;;;;30.99;44.53;100543.16;5114359;27;69098;-36
2021/08/03 06:28:55;;;;;;;3.60;3.03;;;;;;;30.95;44.95;100517.56;5095018;27;66338;-34
2021/08/03 06:31:29;;;;;;;2.78;2.58;;;;;;;31.02;44.37;100542.69;5115245;27;70925;-36
2021/08/03 06:34:01;;;;;;;3.50;3.20;;;;;;;31.01;44.34;100546.47;5108999;27;66391;-36
2021/08/03 06:36:31;;;;;;;10.18;3.40;;;;;;;30.92;46.76;100513.47;5115981;27;70865;-37
2021/08/03 06:39:03;;;;;;;3.15;2.95;;;;;;;31.02;46.33;100526.44;5117461;27;65384;-36
2021/08/03 06:41:40;;;;;;;4.03;3.58;;;;;;;30.90;45.98;100502.03;5110949;27;70333;-39
2021/08/03 06:44:23;;;;;;;5.45;3.55;;;;;;;31.11;45.26;100535.88;5093287;27;65150;-37
2021/08/03 06:46:59;;;;;;;5.78;3.70;;;;;;;31.14;45.40;100537.31;5099464;27;70403;-36
2021/08/03 06:49:32;;;;;;;4.43;3.63;;;;;;;31.15;45.07;100539.81;5113780;27;66124;-36
2021/08/03 06:52:05;;;;;;;6.43;3.60;;;;;;;31.10;45.44;100534.25;5115147;27;70062;-37
2021/08/03 06:54:35;;;;;;;;;;;;;;;30.86;44.71;100538.72;5111280;27;65806;-37
2021/08/03 06:57:09;;;;;;;4.97;4.57;;;;;;;31.08;44.47;100540.94;5115435;27;69912;-37
2021/08/03 06:59:48;;;;;;;5.10;4.55;;;;;;;31.09;44.05;100527.19;5112023;27;65952;-38
2021/08/03 07:02:37;;;;;;;4.68;4.28;;;;;;;30.99;45.01;100507.94;5108037;27;69447;-36
2021/08/03 07:05:16;;;;;;;5.95;5.28;;;;;;;31.15;45.57;100537.09;5104470;27;65612;-37
2021/08/03 07:07:46;;;;;;;5.13;4.65;;;;;;;31.16;45.61;100522.47;5111621;27;70095;-39
2021/08/03 07:10:18;;;;;;;5.97;5.22;;;;;;;31.23;45.34;100521.53;5114096;27;66048;-38
2021/08/03 07:12:53;;;;;;;5.28;4.88;;;;;;;31.19;44.79;100515.78;5111856;27;69203;-38
2021/08/03 07:15:28;;;;;;;7.65;5.18;;;;;;;31.21;44.28;100507.44;5109796;27;66447;-39
2021/08/03 07:18:00;;;;;;;5.50;5.10;;;;;;;31.23;43.45;100505.28;5112944;27;69837;-42
2021/08/03 07:20:31;;;;;;;5.82;5.43;;;;;;;30.95;43.64;100457.97;5114335;27;66132;-37
2021/08/03 07:23:05;;;;;;;5.77;5.20;;;;;;;31.22;43.07;100503.66;5116004;27;70979;-37
2021/08/03 07:25:36;;;;;;;5.72;5.20;;;;;;;31.21;42.81;100507.44;5110367;27;65689;-37
2021/08/03 07:28:07;;;;;;;7.40;6.05;;;;;;;31.20;43.31;100508.47;5087788;27;69034;-38
2021/08/03 07:30:38;;;;;;;7.25;6.10;;;;;;;31.10;42.63;100482.75;5095268;27;66129;-38
2021/08/03 07:33:16;;;;;;;6.13;5.53;;;;;;;31.02;42.30;100460.59;5099134;27;69778;-39
2021/08/03 07:35:50;;;;;;;8.00;6.72;;;;;;;30.96;42.51;100456.94;5103858;27;66154;-36
2021/08/03 07:38:25;;;;;;;6.65;6.15;;;;;;;31.15;42.36;100488.31;5105665;27;69770;-42
2021/08/03 07:40:57;;;;;;;6.90;6.40;;;;;;;31.16;43.04;100500.78;5110458;27;67458;-40
2021/08/03 07:43:30;;;;;;;7.45;6.85;;;;;;;31.23;43.04;100494.44;5114266;27;69168;-42
2021/08/03 07:46:09;;;;;;;7.80;7.07;;;;;;;31.22;43.19;100484.69;5090719;27;68021;-38
2021/08/03 07:48:39;;;;;;;;;;;;;;;30.95;42.77;100493.19;5109387;27;70083;-36
2021/08/03 07:51:12;;;;;;;7.60;6.93;;;;;;;31.19;42.69;100498.69;5114234;27;66443;-39
2021/08/03 07:53:46;;;;;;;8.32;7.70;;;;;;;31.22;42.72;100500.94;5082415;27;69297;-38
2021/08/03 07:56:26;;;;;;;7.72;7.22;;;;;;;31.13;41.96;100489.59;5098419;27;66507;-37
2021/08/03 07:59:01;;;;;;;8.18;7.47;;;;;;;31.13;42.63;100484.19;5100621;27;70223;-36
2021/08/03 08:01:34;;;;;;;8.57;7.90;;;;;;;31.18;42.43;100508.72;5107159;27;66069;-39
2021/08/03 08:04:05;;;;;;;10.27;7.93;;;;;;;31.16;43.38;100483.72;5107482;27;71155;-35
2021/08/03 08:06:36;;;;;;;15.57;8.05;;;;;;;31.20;44.21;100481.38;5106054;27;65479;-36
2021/08/03 08:09:20;;;;;;;11.98;7.95;;;;;;;30.92;44.03;100428.66;5115902;27;70168;-36
2021/08/03 08:11:50;;;;;;;;;;;;;;;30.99;45.04;100488.16;5105658;27;66160;-35
2021/08/03 08:14:20;;;;;;;9.23;7.78;;;;;;;31.22;44.07;100487.38;5112023;27;70442;-37
2021/08/03 08:16:53;;;;;;;8.70;7.90;;;;;;;31.24;44.38;100485.28;5112092;27;43317;-35
2021/08/03 08:19:25;;;;;;;;;;;;;;;30.99;43.97;100488.16;5113359;27;69867;-37
2021/08/03 08:21:55;;;;;;;8.27;7.47;;;;;;;31.25;44.11;100497.75;5115750;27;66539;-37
2021/08/03 08:24:26;;;;;;;8.90;8.10;;;;;;;31.27;43.81;100473.97;5109663;27;70331;-38
2021/08/03 08:26:57;;;;;;;12.98;7.38;;;;;;;31.31;46.21;100475.97;5109418;27;66634;-37
2021/08/03 08:29:33;;;;;;;13.27;7.18;;;;;;;31.27;46.15;100473.97;5113713;27;70325;-35
2021/08/03 08:32:16;;;;;;;8.82;7.22;;;;;;;31.28;45.46;100478.31;5115708;27;66084;-39
2021/08/03 08:34:50;;;;;;;7.65;6.88;;;;;;;31.29;45.51;100477.28;5072593;27;69846;-35
2021/08/03 08:37:25;;;;;;;14.10;7.00;;;;;;;31.33;44.87;100478.47;5114762;27;65708;-36
2021/08/03 08:39:57;;;;;;;10.30;7.18;;;;;;;31.32;45.27;100480.34;5114999;27;69203;-37
2021/08/03 08:42:32;;;;;;;12.98;6.45;;;;;;;31.29;45.47;100461.84;5099559;27;65349;-44
2021/08/03 08:45:07;;;;;;;13.65;7.07;;;;;;;31.35;45.84;100476.34;5111672;27;70426;-37
2021/08/03 08:47:48;;;;;;;14.68;7.03;;;;;;;31.31;45.92;100458.88;5098389;27;66378;-39
2021/08/03 08:50:25;;;;;;;21.65;7.13;;;;;;;31.34;45.62;100463.84;5111009;27;69000;-40
2021/08/03 08:52:58;;;;;;;16.75;6.97;;;;;;;31.33;45.61;100473.03;5096922;27;66011;-38
2021/08/03 08:55:37;;;;;;;11.57;6.45;;;;;;;31.27;46.05;100465.84;5108232;27;70237;-37
2021/08/03 08:58:13;;;;;;;19.15;7.10;;;;;;;31.30;47.86;100471.63;5117077;27;65496;-37
2021/08/03 09:00:48;;;;;;;23.48;6.90;;;;;;;31.35;47.74;100476.34;5109358;27;70567;-37
2021/08/03 09:03:22;;;;;;;15.43;6.55;;;;;;;31.33;47.61;100467.63;5115592;27;66181;-37
2021/08/03 09:06:13;;;;;;;19.63;6.22;;;;;;;31.37;46.60;100491.34;5114457;27;70859;-35
2021/08/03 09:08:49;;;;;;;12.23;6.13;;;;;;;31.20;49.05;100457.81;5115010;27;66250;-35
2021/08/03 09:11:23;;;;;;;14.68;6.38;;;;;;;31.38;48.51;100465.88;5109854;27;70265;-36
2021/08/03 09:14:02;;;;;;;16.73;5.50;;;;;;;31.43;48.28;100481.47;5108679;27;66210;-37
2021/08/03 09:16:47;;;;;;;18.10;7.22;;;;;;;31.23;53.61;100434.84;5111191;27;68762;-38
2021/08/03 09:19:30;;;;;;;17.60;7.82;;;;;;;31.65;55.44;100480.88;5104222;27;65623;-39
2021/08/03 09:22:24;;;;;;;16.05;8.80;;;;;;;31.76;57.04;100477.34;5114356;27;69411;-41
2021/08/03 09:25:14;;;;;;;13.95;7.82;;;;;;;31.82;56.88;100460.13;5111699;27;66391;-37
2021/08/03 09:27:48;;;;;;;14.85;7.78;;;;;;;32.08;56.19;100474.28;5112051;27;68379;-36
2021/08/03 09:30:20;;;;;;;15.25;7.82;;;;;;;32.15;55.88;100469.53;5098611;27;65457;-37
2021/08/03 09:32:53;;;;;;;31.23;9.65;;;;;;;32.24;56.15;100465.41;5108605;27;69500;-37
2021/08/03 09:35:26;;;;;;;9.00;8.07;;;;;;;32.31;57.04;100462.56;5088515;27;65855;-40
2021/08/03 09:37:59;;;;;;;11.32;7.22;;;;;;;32.36;56.83;100459.94;5115597;27;70093;-37
2021/08/03 09:40:34;;;;;;;9.25;6.82;;;;;;;32.30;56.71;100440.03;5114274;27;66538;-36
2021/08/03 09:43:27;;;;;;;8.48;7.65;;;;;;;32.47;56.50;100462.66;5107111;27;70021;-40
2021/08/03 09:46:01;;;;;;;8.50;7.43;;;;;;;32.49;56.60;100468.69;5111185;27;66598;-39
2021/08/03 09:48:34;;;;;;;7.50;6.80;;;;;;;32.55;56.64;100482.34;5113251;27;69586;-41
2021/08/03 09:51:13;;;;;;;11.32;8.50;;;;;;;32.41;57.07;100460.88;5079439;27;65480;-37
2021/08/03 09:53:53;;;;;;;13.23;7.85;;;;;;;32.60;56.84;100482.47;5109368;27;69656;-37
2021/08/03 09:56:29;;;;;;;12.10;8.30;;;;;;;32.62;56.99;100483.84;5130538;27;66777;-37
2021/08/03 09:59:11;;;;;;;15.73;8.48;;;;;;;32.65;56.97;100479.81;5117599;27;69801;-35
2021/08/03 10:01:49;;;;;;;12.05;8.10;;;;;;;32.70;57.08;100496.22;5111053;27;66471;-36
2021/08/03 10:04:20;;;;;;;8.73;7.78;;;;;;;32.70;57.18;100504.38;5116258;27;70579;-37
2021/08/03 10:06:52;;;;;;;23.30;9.80;;;;;;;32.68;58.12;100501.06;5095670;27;67419;-40
2021/08/03 10:09:25;;;;;;;13.95;11.38;;;;;;;32.72;58.38;100513.09;5114148;27;70531;-37
2021/08/03 10:12:17;;;;;;;18.75;12.20;;;;;;;32.77;58.53;100521.34;5110699;27;66944;-37
2021/08/03 10:14:51;;;;;;;17.58;11.98;;;;;;;32.75;59.76;100512.63;5115278;27;69585;-37
2021/08/03 10:17:26;;;;;;;17.63;12.93;;;;;;;32.74;59.41;100510.97;5109043;27;65391;-38
2021/08/03 10:19:59;;;;;;;22.02;13.40;;;;;;;32.84;59.62;100532.06;5118297;27;70369;-37
2021/08/03 10:22:35;;;;;;;14.05;12.02;;;;;;;32.62;59.85;100491.16;5119312;27;65855;-37
2021/08/03 10:25:16;;;;;;;15.02;11.80;;;;;;;32.82;59.56;100518.75;5111158;27;69159;-37
2021/08/03 10:27:52;;;;;;;15.80;11.43;;;;;;;32.94;59.54;100537.72;5116526;27;66494;-38
2021/08/03 10:30:30;;;;;;;15.23;11.55;;;;;;;33.04;59.40;100547.97;5112851;27;70175;-39
2021/08/03 10:33:12;;;;;;;18.70;11.85;;;;;;;33.09;59.41;100551.59;5105115;27;66117;-38
2021/08/03 10:35:49;;;;;;;15.90;10.88;;;;;;;32.90;59.03;100526.50;5108341;27;70355;-37
2021/08/03 10:38:29;;;;;;;15.25;9.93;;;;;;;33.12;58.74;100556.53;5108999;27;65891;-38
2021/08/03 10:41:08;;;;;;;11.10;9.88;;;;;;;32.94;58.22;100532.28;5118703;27;69513;-37
2021/08/03 10:43:48;;;;;;;13.20;9.98;;;;;;;33.28;58.21;100586.75;5112138;27;65461;-37
2021/08/03 10:46:26;;;;;;;17.08;9.45;;;;;;;33.30;58.00;100595.47;5108655;27;69848;-37
2021/08/03 10:48:57;;;;;;;10.57;9.18;;;;;;;33.34;58.27;100602.06;5114955;27;66217;-37
2021/08/03 10:51:30;;;;;;;11.23;9.23;;;;;;;33.34;57.79;100602.06;5117392;27;70432;-37
2021/08/03 10:54:13;;;;;;;9.95;8.73;;;;;;;33.36;58.01;100606.19;5114788;27;65822;-38
2021/08/03 10:56:54;;;;;;;9.57;8.60;;;;;;;33.40;57.73;100594.81;5116326;27;69534;-38
2021/08/03 10:59:37;;;;;;;13.07;8.75;;;;;;;33.40;57.46;100595.66;5115850;27;67754;-37
2021/08/03 11:02:23;;;;;;;16.63;7.97;;;;;;;33.37;57.39;100594.25;5110561;27;70179;-37
2021/08/03 11:04:59;;;;;;;13.50;8.38;;;;;;;33.24;57.49;100559.22;5112680;27;66686;-38
2021/08/03 11:07:32;;;;;;;8.57;7.45;;;;;;;33.24;57.32;100570.09;5095503;27;69908;-37
2021/08/03 11:10:18;;;;;;;11.70;7.85;;;;;;;33.42;57.60;100587.25;5115796;27;65959;-39
2021/08/03 11:12:53;;;;;;;8.82;7.93;;;;;;;33.42;57.35;100590.78;5115351;27;69169;-39
2021/08/03 11:15:33;;;;;;;8.88;7.47;;;;;;;33.44;57.31;100607.69;5110756;27;66270;-38
2021/08/03 11:18:08;;;;;;;10.88;7.35;;;;;;;33.46;57.19;100607.44;5113506;27;70315;-41
2021/08/03 11:20:45;;;;;;;13.05;7.07;;;;;;;33.44;56.99;100606.88;5109815;27;65369;-40
2021/08/03 11:23:18;;;;;;;9.25;7.25;;;;;;;33.37;58.18;100613.28;5099894;27;70016;-41
2021/08/03 11:25:49;;;;;;;41.08;15.95;;;;;;;33.23;58.47;100614.63;5112765;27;65596;-41
2021/08/03 11:28:23;;;;;;;22.90;10.80;;;;;;;32.87;58.88;100578.59;5117117;27;69923;-42
2021/08/03 11:30:54;;;;;;;29.55;12.25;;;;;;;32.99;59.57;100621.19;5116376;27;66086;-43
2021/08/03 11:33:28;;;;;;;28.90;11.35;;;;;;;32.83;59.85;100618.19;5119460;27;70503;-40
2021/08/03 11:36:10;;;;;;;19.45;9.95;;;;;;;32.85;59.71;100626.91;5113187;27;65435;-42
2021/08/03 11:38:45;;;;;;;21.45;9.68;;;;;;;32.75;59.50;100623.97;5113781;27;70560;-40
2021/08/03 11:41:16;;;;;;;21.63;9.30;;;;;;;32.69;59.84;100641.25;5105190;27;65329;-41
2021/08/03 11:43:49;;;;;;;19.90;8.55;;;;;;;32.64;60.12;100639.22;5114442;27;70529;-44
2021/08/03 11:46:26;;;;;;;14.75;8.15;;;;;;;32.62;60.36;100643.25;5114575;27;66391;-42
2021/08/03 11:49:04;;;;;;;11.87;7.53;;;;;;;32.57;60.32;100632.25;5110596;27;70085;-40
2021/08/03 11:51:47;;;;;;;13.48;7.28;;;;;;;32.55;60.75;100637.94;5107567;27;66451;-40
2021/08/03 11:54:29;;;;;;;15.65;7.97;;;;;;;32.54;60.58;100640.88;5114954;27;69518;-38
2021/08/03 11:57:24;;;;;;;11.98;7.57;;;;;;;32.43;60.82;100632.50;5113046;27;66219;-35
2021/08/03 12:00:12;;;;;;;9.48;6.68;;;;;;;32.49;60.43;100655.19;5115398;27;70196;-39